Time;durP1;ratioP1;P1;durP2;ratioP2;P2;SDS_P1;SDS_P2;PMS_P1;PMS_P2;Temp;Humidity;BMP_temperature;BMP_pressure;BME280_temperature;BME280_humidity;BME280_pressure;Samples;Min_cycle;Max_cycle;Signal;HPM_P1;HPM_P2
2021/07/01 00:01:53;;;;;;;16.33;15.23;;;26.60;91.30;;;;;;5061477;28;20488;-23
2021/07/01 00:04:24;;;;;;;17.00;15.80;;;26.50;91.60;;;;;;5062159;28;21009;-28
2021/07/01 00:06:56;;;;;;;18.10;16.50;;;26.60;91.90;;;;;;5061899;28;20513;-25
2021/07/01 00:09:27;;;;;;;17.20;15.90;;;27.00;91.20;;;;;;5061002;28;20450;-25
2021/07/01 00:12:00;;;;;;;17.13;16.03;;;27.10;90.80;;;;;;5061802;28;20561;-28
2021/07/01 00:14:32;;;;;;;17.10;16.00;;;26.80;90.90;;;;;;5057200;28;20511;-27
2021/07/01 00:17:03;;;;;;;16.63;15.53;;;26.60;91.10;;;;;;5042822;28;20810;-27
2021/07/01 00:19:34;;;;;;;16.13;15.03;;;26.50;91.70;;;;;;5053356;28;20438;-27
2021/07/01 00:22:06;;;;;;;17.03;15.90;;;26.60;91.80;;;;;;5066132;28;20544;-23
2021/07/01 00:24:37;;;;;;;18.03;16.87;;;26.50;91.10;;;;;;5064542;28;20830;-25
2021/07/01 00:27:10;;;;;;;17.07;15.70;;;26.50;90.70;;;;;;5065681;28;20781;-23
2021/07/01 00:29:41;;;;;;;18.37;17.07;;;26.60;91.40;;;;;;5063245;28;20449;-27
2021/07/01 00:32:12;;;;;;;16.80;15.60;;;26.30;91.00;;;;;;5043443;28;20470;-26
2021/07/01 00:34:43;;;;;;;17.67;16.47;;;26.20;91.20;;;;;;5060952;28;20448;-25
2021/07/01 00:37:15;;;;;;;18.23;16.90;;;26.10;92.00;;;;;;5063571;28;20445;-27
2021/07/01 00:39:46;;;;;;;18.00;16.73;;;25.90;92.90;;;;;;5064311;28;20452;-24
2021/07/01 00:42:19;;;;;;;18.43;17.10;;;25.80;92.80;;;;;;5063073;28;20469;-26
2021/07/01 00:44:50;;;;;;;17.93;16.63;;;25.80;93.40;;;;;;5061332;28;20459;-25
2021/07/01 00:47:21;;;;;;;17.63;16.43;;;25.70;93.50;;;;;;5065064;28;20829;-26
2021/07/01 00:49:54;;;;;;;17.57;16.20;;;25.80;93.70;;;;;;5062158;28;20477;-24
2021/07/01 00:52:45;;;;;;;17.30;16.10;;;25.70;93.90;;;;;;5053599;28;20466;-29
2021/07/01 00:55:16;;;;;;;16.37;15.27;;;25.60;93.50;;;;;;5058204;28;20469;-25
2021/07/01 00:57:50;;;;;;;16.90;15.50;;;25.60;94.10;;;;;;5064859;28;20459;-27
2021/07/01 01:00:30;;;;;;;15.73;14.63;;;25.80;93.70;;;;;;5064922;28;20453;-26
2021/07/01 01:03:01;;;;;;;16.80;15.60;;;25.90;93.30;;;;;;5052450;28;20892;-26
2021/07/01 01:05:33;;;;;;;18.40;17.10;;;26.00;93.60;;;;;;5064550;28;21050;-26
2021/07/01 01:08:04;;;;;;;16.73;15.53;;;26.00;92.60;;;;;;5064732;28;20457;-25
2021/07/01 01:10:35;;;;;;;18.13;16.83;;;25.90;93.00;;;;;;5061876;28;20452;-28
2021/07/01 01:13:10;;;;;;;16.93;15.77;;;25.80;92.90;;;;;;5051640;28;20543;-24
2021/07/01 01:15:41;;;;;;;17.00;15.87;;;25.60;93.10;;;;;;5063945;28;20487;-22
2021/07/01 01:18:13;;;;;;;17.03;15.83;;;25.60;93.40;;;;;;5064632;28;20485;-23
2021/07/01 01:20:44;;;;;;;17.43;16.13;;;25.80;93.20;;;;;;5064643;28;20521;-30
2021/07/01 01:23:17;;;;;;;16.73;15.50;;;25.80;93.50;;;;;;5049207;28;20540;-25
2021/07/01 01:25:51;;;;;;;17.60;16.37;;;25.80;92.90;;;;;;5063603;28;20446;-26
2021/07/01 01:28:22;;;;;;;17.40;16.20;;;26.00;93.40;;;;;;5064733;28;20454;-24
2021/07/01 01:30:53;;;;;;;17.77;16.50;;;25.90;93.40;;;;;;5063938;28;20492;-25
2021/07/01 01:33:25;;;;;;;17.17;15.77;;;25.90;93.60;;;;;;5064657;28;20457;-24
2021/07/01 01:35:57;;;;;;;18.30;17.00;;;26.00;93.40;;;;;;5064963;28;20481;-24
2021/07/01 01:38:29;;;;;;;17.97;16.57;;;25.80;93.20;;;;;;5063560;28;20437;-25
2021/07/01 01:41:01;;;;;;;17.97;16.67;;;25.60;93.50;;;;;;5063032;28;20844;-23
2021/07/01 01:43:32;;;;;;;17.57;16.37;;;25.60;93.40;;;;;;5064169;28;20484;-24
2021/07/01 01:46:03;;;;;;;17.90;16.70;;;25.50;94.00;;;;;;5064261;28;20531;-24
2021/07/01 01:48:34;;;;;;;17.90;16.80;;;25.60;94.10;;;;;;5063798;28;20457;-24
2021/07/01 01:51:06;;;;;;;18.40;16.57;;;25.70;93.90;;;;;;5062584;28;20491;-24
2021/07/01 01:53:39;;;;;;;16.73;15.63;;;25.60;94.00;;;;;;5063167;28;20444;-24
2021/07/01 01:56:10;;;;;;;15.43;14.43;;;25.50;93.90;;;;;;5059632;28;20449;-25
2021/07/01 01:58:41;;;;;;;16.37;15.27;;;25.50;94.30;;;;;;5061849;28;20458;-23
2021/07/01 02:01:12;;;;;;;16.57;15.23;;;25.50;94.20;;;;;;5060990;28;20514;-24
2021/07/01 02:03:43;;;;;;;16.50;15.37;;;25.40;94.20;;;;;;5056206;28;21061;-28
2021/07/01 02:06:15;;;;;;;16.53;15.33;;;25.40;94.50;;;;;;5057397;28;20457;-26
2021/07/01 02:08:47;;;;;;;19.67;18.40;;;25.30;94.40;;;;;;5057803;28;20440;-24
2021/07/01 02:11:19;;;;;;;19.90;18.50;;;25.00;94.30;;;;;;5054770;28;20491;-21
2021/07/01 02:13:50;;;;;;;17.33;16.10;;;24.80;94.70;;;;;;5043614;28;20549;-24
2021/07/01 02:16:21;;;;;;;16.60;15.40;;;24.80;95.50;;;;;;5053520;28;20452;-25
2021/07/01 02:18:53;;;;;;;15.50;14.40;;;24.80;98.20;;;;;;5054297;28;20991;-26
2021/07/01 02:21:24;;;;;;;15.83;14.73;;;24.80;99.70;;;;;;5055727;28;20456;-27
2021/07/01 02:23:57;;;;;;;15.87;14.57;;;24.70;99.90;;;;;;5063506;28;20863;-27
2021/07/01 02:26:28;;;;;;;14.90;13.80;;;24.80;99.90;;;;;;5061915;28;20456;-29
2021/07/01 02:28:59;;;;;;;16.13;14.93;;;24.60;99.90;;;;;;5062830;28;20452;-26
2021/07/01 02:31:30;;;;;;;14.10;13.00;;;24.40;99.90;;;;;;5060356;28;20456;-25
2021/07/01 02:34:02;;;;;;;15.27;14.07;;;24.20;99.90;;;;;;5061450;28;20463;-25
2021/07/01 02:36:33;;;;;;;13.30;12.30;;;23.90;99.90;;;;;;5062295;28;20747;-25
2021/07/01 02:39:07;;;;;;;13.23;11.93;;;23.80;99.90;;;;;;5062619;28;20518;-23
2021/07/01 02:41:38;;;;;;;13.53;12.53;;;23.60;99.90;;;;;;5062416;28;20455;-23
2021/07/01 02:44:10;;;;;;;12.50;11.50;;;23.50;99.90;;;;;;5054268;28;20497;-26
2021/07/01 02:46:41;;;;;;;12.03;11.03;;;23.50;99.90;;;;;;5062272;28;20510;-23
2021/07/01 02:49:12;;;;;;;12.30;11.30;;;23.50;99.90;;;;;;5057134;28;20454;-26
2021/07/01 02:51:44;;;;;;;10.80;9.90;;;23.40;99.90;;;;;;5069258;28;20468;-23
2021/07/01 02:54:17;;;;;;;11.17;10.27;;;23.30;99.90;;;;;;5070016;28;20448;-24
2021/07/01 02:56:49;;;;;;;11.00;10.10;;;23.30;99.90;;;;;;5059252;28;20475;-24
2021/07/01 02:59:20;;;;;;;10.30;9.50;;;23.30;99.90;;;;;;5055813;28;20460;-24
2021/07/01 03:01:52;;;;;;;9.97;9.07;;;23.20;99.90;;;;;;5058214;28;20527;-24
2021/07/01 03:04:23;;;;;;;10.00;9.20;;;23.00;99.90;;;;;;5061105;28;20484;-23
2021/07/01 03:06:54;;;;;;;9.30;8.60;;;22.90;99.90;;;;;;5061718;28;20441;-26
2021/07/01 03:09:27;;;;;;;9.60;8.90;;;22.80;99.90;;;;;;5047867;28;20715;-22
2021/07/01 03:11:58;;;;;;;9.13;8.43;;;22.80;99.90;;;;;;5062475;28;20459;-25
2021/07/01 03:14:29;;;;;;;9.47;8.80;;;22.70;99.90;;;;;;5062638;28;20456;-23
2021/07/01 03:17:01;;;;;;;9.20;8.40;;;22.60;99.90;;;;;;5063090;28;20980;-24
2021/07/01 03:19:32;;;;;;;10.07;8.20;;;22.60;99.90;;;;;;5055592;28;20506;-24
2021/07/01 03:22:03;;;;;;;8.83;8.13;;;22.50;99.90;;;;;;5063557;28;20522;-22
2021/07/01 03:24:36;;;;;;;8.03;7.43;;;22.30;99.90;;;;;;5061959;28;20455;-25
2021/07/01 03:27:08;;;;;;;8.87;8.17;;;22.30;99.90;;;;;;5062981;28;21036;-24
2021/07/01 03:29:39;;;;;;;8.77;8.07;;;22.20;99.90;;;;;;5062455;28;20777;-24
2021/07/01 03:32:10;;;;;;;9.40;8.70;;;22.30;99.90;;;;;;5063164;28;20456;-24
2021/07/01 03:34:42;;;;;;;7.80;7.20;;;22.20;99.90;;;;;;5062012;28;20452;-24
2021/07/01 03:37:13;;;;;;;8.20;7.60;;;22.10;99.90;;;;;;5063301;28;20495;-25
2021/07/01 03:39:46;;;;;;;8.90;8.10;;;22.10;99.90;;;;;;5053281;28;20449;-26
2021/07/01 03:42:19;;;;;;;7.77;7.13;;;22.20;99.90;;;;;;5062479;28;20458;-23
2021/07/01 03:44:50;;;;;;;7.37;6.87;;;22.10;99.90;;;;;;5061938;28;20480;-23
2021/07/01 03:47:26;;;;;;;7.67;7.17;;;22.10;99.90;;;;;;5063127;28;20565;-26
2021/07/01 03:49:58;;;;;;;8.00;7.40;;;22.00;99.90;;;;;;5062181;28;20472;-22
2021/07/01 03:52:29;;;;;;;8.53;7.87;;;21.90;99.90;;;;;;5064250;28;20529;-27
2021/07/01 03:55:02;;;;;;;7.77;7.17;;;21.80;99.90;;;;;;5064836;28;20502;-24
2021/07/01 03:57:33;;;;;;;7.13;6.63;;;21.70;99.90;;;;;;5064300;28;20511;-24
2021/07/01 04:00:06;;;;;;;6.83;6.33;;;21.70;99.90;;;;;;5065950;28;20430;-25
2021/07/01 04:02:37;;;;;;;6.27;5.77;;;21.60;99.90;;;;;;5067369;28;20925;-28
2021/07/01 04:05:09;;;;;;;7.37;6.87;;;21.50;99.90;;;;;;5065860;28;20476;-22
2021/07/01 04:07:44;;;;;;;7.53;6.70;;;21.60;99.90;;;;;;5066704;28;20490;-27
2021/07/01 04:10:18;;;;;;;7.40;6.83;;;21.50;99.90;;;;;;5065467;28;20479;-23
2021/07/01 04:12:49;;;;;;;7.87;7.20;;;21.50;99.90;;;;;;5065944;28;20451;-28
2021/07/01 04:15:21;;;;;;;6.87;6.37;;;21.40;99.90;;;;;;5065702;28;20999;-24
2021/07/01 04:17:52;;;;;;;7.10;6.40;;;21.40;99.90;;;;;;5053628;28;20497;-25
2021/07/01 04:20:23;;;;;;;7.17;6.57;;;21.50;99.90;;;;;;5065262;28;20459;-26
2021/07/01 04:22:54;;;;;;;6.83;6.37;;;21.50;99.90;;;;;;5066868;28;20594;-25
2021/07/01 04:25:27;;;;;;;7.10;6.60;;;21.40;99.90;;;;;;5065062;28;20565;-25
2021/07/01 04:27:58;;;;;;;6.90;6.40;;;21.40;99.90;;;;;;5066267;28;20427;-25
2021/07/01 04:30:30;;;;;;;8.17;7.47;;;21.30;99.90;;;;;;5057268;28;20432;-24
2021/07/01 04:33:03;;;;;;;7.67;6.87;;;21.40;99.90;;;;;;5051991;28;20444;-26
2021/07/01 04:35:34;;;;;;;6.50;6.10;;;21.40;99.90;;;;;;5045114;28;20495;-22
2021/07/01 04:38:05;;;;;;;6.87;6.37;;;21.40;99.90;;;;;;5057016;28;20424;-25
2021/07/01 04:40:38;;;;;;;7.23;6.63;;;21.30;99.90;;;;;;5044380;28;20746;-24
2021/07/01 04:43:09;;;;;;;6.93;6.33;;;21.20;99.90;;;;;;5047044;28;20538;-25
2021/07/01 04:45:41;;;;;;;8.10;7.30;;;21.20;99.90;;;;;;5042958;28;20483;-24
2021/07/01 04:48:15;;;;;;;6.30;5.90;;;21.30;99.90;;;;;;5042978;28;20465;-25
2021/07/01 04:50:46;;;;;;;7.20;6.70;;;21.30;99.90;;;;;;5043714;28;21018;-24
2021/07/01 04:53:55;;;;;;;6.90;6.30;;;21.40;99.90;;;;;;5057609;28;20469;-22
2021/07/01 04:56:43;;;;;;;6.97;6.27;;;21.40;99.90;;;;;;5058463;28;20461;-24
2021/07/01 04:59:14;;;;;;;8.40;6.40;;;21.20;99.90;;;;;;5051609;28;20444;-26
2021/07/01 05:01:46;;;;;;;6.77;6.27;;;21.30;99.90;;;;;;5062345;28;20768;-26
2021/07/01 05:04:17;;;;;;;6.70;6.20;;;21.30;99.90;;;;;;5052513;28;20467;-26
2021/07/01 05:06:49;;;;;;;6.87;6.37;;;21.40;99.90;;;;;;5060449;28;21306;-30
2021/07/01 05:09:20;;;;;;;7.33;6.53;;;21.30;99.90;;;;;;5051470;28;20431;-25
2021/07/01 05:11:53;;;;;;;5.67;5.20;;;21.30;99.90;;;;;;5065153;28;20452;-27
2021/07/01 05:14:24;;;;;;;6.60;6.10;;;21.20;99.90;;;;;;5064485;28;20419;-24
2021/07/01 05:16:56;;;;;;;6.60;6.10;;;21.10;99.90;;;;;;5064188;28;20481;-23
2021/07/01 05:19:27;;;;;;;5.60;5.20;;;21.10;99.90;;;;;;5064852;28;20456;-24
2021/07/01 05:21:58;;;;;;;6.80;5.83;;;21.10;99.90;;;;;;5065223;28;20456;-26
2021/07/01 05:24:29;;;;;;;6.23;5.83;;;21.00;99.90;;;;;;5063466;28;20495;-24
2021/07/01 05:27:03;;;;;;;6.27;5.77;;;21.10;99.90;;;;;;5064647;28;20499;-24
2021/07/01 05:29:34;;;;;;;5.93;5.40;;;21.10;99.90;;;;;;5063817;28;20476;-25
2021/07/01 05:32:25;;;;;;;6.33;5.83;;;21.00;99.90;;;;;;5064857;28;21092;-23
2021/07/01 05:34:56;;;;;;;6.70;6.10;;;20.90;99.90;;;;;;5064012;28;20453;-26
2021/07/01 05:37:29;;;;;;;5.73;5.27;;;20.90;99.90;;;;;;5058460;28;20465;-26
2021/07/01 05:40:01;;;;;;;6.23;5.27;;;20.90;99.90;;;;;;5061953;28;20957;-23
2021/07/01 05:42:34;;;;;;;5.90;5.30;;;21.00;99.90;;;;;;5064641;28;20498;-23
2021/07/01 05:45:06;;;;;;;6.10;5.60;;;20.90;99.90;;;;;;5063542;28;20458;-24
2021/07/01 05:47:38;;;;;;;5.40;4.90;;;20.90;99.90;;;;;;5064437;28;20419;-25
2021/07/01 05:50:12;;;;;;;6.00;5.57;;;20.90;99.90;;;;;;5064037;28;20476;-23
2021/07/01 05:52:47;;;;;;;5.10;4.80;;;20.90;99.90;;;;;;5054037;28;20819;-27
2021/07/01 05:55:18;;;;;;;5.70;5.30;;;21.00;99.90;;;;;;5060552;28;20821;-28
2021/07/01 05:57:51;;;;;;;5.37;4.83;;;20.90;99.90;;;;;;5064205;28;20549;-25
2021/07/01 06:00:22;;;;;;;5.27;4.87;;;20.90;99.90;;;;;;5063534;28;20449;-26
2021/07/01 06:02:53;;;;;;;5.57;5.17;;;20.90;99.90;;;;;;5064658;28;20471;-23
2021/07/01 06:05:25;;;;;;;5.53;5.13;;;20.90;99.90;;;;;;5063571;28;20470;-23
2021/07/01 06:08:00;;;;;;;5.30;4.90;;;20.80;99.90;;;;;;5064298;28;20517;-23
2021/07/01 06:10:32;;;;;;;4.90;4.50;;;20.90;99.90;;;;;;5063151;28;20435;-23
2021/07/01 06:13:08;;;;;;;5.43;5.03;;;20.90;99.90;;;;;;5063164;28;20415;-25
2021/07/01 06:15:39;;;;;;;6.27;5.63;;;20.80;99.90;;;;;;5062716;28;20533;-26
2021/07/01 06:18:11;;;;;;;5.80;5.30;;;20.80;99.90;;;;;;5064369;28;20430;-23
2021/07/01 06:20:42;;;;;;;5.70;5.30;;;20.80;99.90;;;;;;5063528;28;20458;-23
2021/07/01 06:23:14;;;;;;;5.33;4.93;;;20.70;99.90;;;;;;5063909;28;20475;-25
2021/07/01 06:25:47;;;;;;;5.10;4.80;;;20.70;99.90;;;;;;5061948;28;20462;-24
2021/07/01 06:28:20;;;;;;;6.10;5.53;;;20.80;99.90;;;;;;5063816;28;20580;-25
2021/07/01 06:30:54;;;;;;;5.13;4.73;;;20.70;99.90;;;;;;5063300;28;20419;-23
2021/07/01 06:33:25;;;;;;;5.60;5.10;;;20.70;99.90;;;;;;5064316;28;20521;-26
2021/07/01 06:35:57;;;;;;;4.93;4.53;;;20.70;99.90;;;;;;5046455;28;20489;-22
2021/07/01 06:38:32;;;;;;;5.27;4.87;;;20.70;99.90;;;;;;5062996;28;20419;-22
2021/07/01 06:41:04;;;;;;;5.73;5.23;;;20.70;99.90;;;;;;5062704;28;20465;-26
2021/07/01 06:43:37;;;;;;;5.43;4.93;;;20.70;99.90;;;;;;5063205;28;20517;-22
2021/07/01 06:46:08;;;;;;;5.37;4.87;;;20.70;99.90;;;;;;5051671;28;20487;-24
2021/07/01 06:48:40;;;;;;;4.97;4.67;;;20.70;99.90;;;;;;5064017;28;20411;-23
2021/07/01 06:51:13;;;;;;;5.70;5.30;;;20.70;99.90;;;;;;5065249;28;20618;-24
2021/07/01 06:53:46;;;;;;;5.30;5.00;;;20.70;99.90;;;;;;5065983;28;20503;-27
2021/07/01 06:56:17;;;;;;;5.50;5.10;;;20.60;99.90;;;;;;5062053;28;20415;-23
2021/07/01 06:58:51;;;;;;;6.30;5.70;;;20.60;99.90;;;;;;5063347;28;20430;-24
2021/07/01 07:01:23;;;;;;;5.37;4.97;;;20.50;99.90;;;;;;5062230;28;20421;-22
2021/07/01 07:04:14;;;;;;;5.77;5.37;;;20.40;99.90;;;;;;5047225;28;20420;-23
2021/07/01 07:06:46;;;;;;;6.03;5.43;;;20.50;99.90;;;;;;5062893;28;20499;-25
2021/07/01 07:09:18;;;;;;;5.87;5.47;;;20.50;99.90;;;;;;5062190;28;20537;-23
2021/07/01 07:11:50;;;;;;;5.83;5.43;;;20.40;99.90;;;;;;5062272;28;20528;-26
2021/07/01 07:14:23;;;;;;;5.47;5.07;;;20.40;99.90;;;;;;5046988;28;20449;-24
2021/07/01 07:16:57;;;;;;;5.30;5.00;;;20.30;99.90;;;;;;5062321;28;20441;-27
2021/07/01 07:19:31;;;;;;;5.97;5.57;;;20.40;99.90;;;;;;5062912;28;20422;-25
2021/07/01 07:22:05;;;;;;;5.73;5.27;;;20.50;99.90;;;;;;5062571;28;20436;-23
2021/07/01 07:24:39;;;;;;;6.90;5.57;;;20.30;99.90;;;;;;5061064;28;20430;-24
2021/07/01 07:27:11;;;;;;;5.07;4.67;;;20.30;99.90;;;;;;5051893;28;20487;-25
2021/07/01 07:29:46;;;;;;;5.97;5.57;;;20.30;99.90;;;;;;5062407;28;20431;-21
2021/07/01 07:32:19;;;;;;;5.63;5.23;;;20.30;99.90;;;;;;5061901;28;20525;-24
2021/07/01 07:34:51;;;;;;;6.20;5.80;;;20.40;99.90;;;;;;5062595;28;20945;-24
2021/07/01 07:37:22;;;;;;;5.43;5.03;;;20.40;99.90;;;;;;5062936;28;20783;-23
2021/07/01 07:39:53;;;;;;;5.67;5.17;;;20.40;99.90;;;;;;5061128;28;20452;-25
2021/07/01 07:42:25;;;;;;;6.20;5.80;;;20.30;99.90;;;;;;5062590;28;20500;-25
2021/07/01 07:45:00;;;;;;;6.10;5.60;;;20.20;99.90;;;;;;5062247;28;20458;-26
2021/07/01 07:47:32;;;;;;;6.00;5.60;;;20.20;99.90;;;;;;5061896;28;20418;-23
2021/07/01 07:50:04;;;;;;;5.77;5.37;;;20.20;99.90;;;;;;5052039;28;20512;-23
2021/07/01 07:52:36;;;;;;;6.73;5.20;;;20.20;99.90;;;;;;5061707;28;20444;-23
2021/07/01 07:55:10;;;;;;;5.27;4.93;;;20.20;99.90;;;;;;5061849;28;20842;-22
2021/07/01 07:57:41;;;;;;;5.70;5.30;;;20.20;99.90;;;;;;5061546;28;20453;-25
2021/07/01 08:00:15;;;;;;;6.20;5.60;;;20.20;99.90;;;;;;5061709;28;20458;-23
2021/07/01 08:02:54;;;;;;;6.33;5.73;;;20.20;99.90;;;;;;5062555;28;20441;-23
2021/07/01 08:05:27;;;;;;;6.87;5.83;;;20.10;99.90;;;;;;5062046;28;20439;-22
2021/07/01 08:07:59;;;;;;;6.27;5.87;;;20.00;99.90;;;;;;5062599;28;20465;-24
2021/07/01 08:10:32;;;;;;;6.67;6.00;;;20.00;99.90;;;;;;5052739;28;20464;-22
2021/07/01 08:13:05;;;;;;;6.80;5.30;;;20.10;99.90;;;;;;5062451;28;20789;-22
2021/07/01 08:15:40;;;;;;;6.23;5.70;;;20.10;99.90;;;;;;5061800;28;20476;-22
2021/07/01 08:18:21;;;;;;;5.87;5.47;;;20.00;99.90;;;;;;5060528;28;20497;-26
2021/07/01 08:20:52;;;;;;;5.90;5.30;;;20.00;99.90;;;;;;5061258;28;20423;-22
2021/07/01 08:23:23;;;;;;;6.47;5.83;;;20.00;99.90;;;;;;5062744;28;20482;-22
2021/07/01 08:25:55;;;;;;;5.93;5.43;;;20.10;99.90;;;;;;5054182;28;20501;-22
2021/07/01 08:28:26;;;;;;;6.43;5.83;;;20.00;99.90;;;;;;5061999;28;20500;-22
2021/07/01 08:31:00;;;;;;;6.07;5.57;;;20.00;99.90;;;;;;5060910;28;20460;-23
2021/07/01 08:33:36;;;;;;;5.53;5.03;;;20.00;99.90;;;;;;5062041;28;20455;-23
2021/07/01 08:36:10;;;;;;;5.57;5.07;;;20.10;99.90;;;;;;5061895;28;20418;-22
2021/07/01 08:38:42;;;;;;;5.40;5.07;;;20.00;99.90;;;;;;5063921;28;20456;-23
2021/07/01 08:41:15;;;;;;;6.03;5.40;;;20.10;99.90;;;;;;5065185;28;20457;-24
2021/07/01 08:43:54;;;;;;;8.60;5.30;;;20.00;99.90;;;;;;5066085;28;20486;-23
2021/07/01 08:46:28;;;;;;;5.80;5.40;;;20.00;99.90;;;;;;5064570;28;20592;-27
2021/07/01 08:49:05;;;;;;;5.37;4.97;;;20.10;99.90;;;;;;5065613;28;20499;-25
2021/07/01 08:51:58;;;;;;;5.53;5.13;;;20.10;99.90;;;;;;5064949;28;20450;-26
2021/07/01 08:54:32;;;;;;;5.07;4.77;;;20.00;99.90;;;;;;5065006;28;20456;-25
2021/07/01 08:57:06;;;;;;;5.33;4.83;;;20.00;99.90;;;;;;5065101;28;20512;-25
2021/07/01 08:59:43;;;;;;;5.67;5.27;;;20.10;99.90;;;;;;5065690;28;20509;-27
2021/07/01 09:02:17;;;;;;;6.10;5.50;;;20.00;99.90;;;;;;5059932;28;20457;-27
2021/07/01 09:04:56;;;;;;;5.23;4.83;;;20.10;99.90;;;;;;5059943;28;20441;-23
2021/07/01 09:07:29;;;;;;;4.93;4.63;;;20.00;99.90;;;;;;5065421;28;20459;-24
2021/07/01 09:10:04;;;;;;;5.23;4.73;;;20.00;99.90;;;;;;5064694;28;20452;-22
2021/07/01 09:12:40;;;;;;;5.30;5.00;;;20.10;99.90;;;;;;5065258;28;20415;-24
2021/07/01 09:15:12;;;;;;;5.10;4.77;;;20.00;99.90;;;;;;5065481;28;20445;-22
2021/07/01 09:17:54;;;;;;;5.10;4.70;;;20.10;99.90;;;;;;5064684;28;20438;-24
2021/07/01 09:20:27;;;;;;;4.93;4.60;;;20.00;99.90;;;;;;5056833;28;20430;-23
2021/07/01 09:22:59;;;;;;;4.87;4.47;;;20.00;99.90;;;;;;5065144;28;20423;-24
2021/07/01 09:25:30;;;;;;;5.10;4.70;;;20.10;99.90;;;;;;5063969;28;20782;-24
2021/07/01 09:28:03;;;;;;;5.30;4.83;;;20.00;99.90;;;;;;5064577;28;20462;-23
2021/07/01 09:30:35;;;;;;;4.90;4.57;;;20.00;99.90;;;;;;5059424;28;20444;-25
2021/07/01 09:33:09;;;;;;;5.00;4.70;;;20.00;99.90;;;;;;5065284;28;20442;-24
2021/07/01 09:35:40;;;;;;;4.80;4.40;;;20.00;99.90;;;;;;5064970;28;20453;-23
2021/07/01 09:38:12;;;;;;;5.37;4.93;;;20.00;99.90;;;;;;5048533;28;20427;-25
2021/07/01 09:40:43;;;;;;;5.17;4.77;;;20.00;99.90;;;;;;5063746;28;20453;-22
2021/07/01 09:43:16;;;;;;;5.60;5.20;;;20.00;99.90;;;;;;5064442;28;20518;-22
2021/07/01 09:45:51;;;;;;;5.27;4.77;;;20.00;99.90;;;;;;5064239;28;20448;-24
2021/07/01 09:48:27;;;;;;;5.43;4.93;;;20.00;99.90;;;;;;5064252;28;20465;-22
2021/07/01 09:51:04;;;;;;;5.67;5.13;;;20.00;99.90;;;;;;5062130;28;20615;-24
2021/07/01 09:53:36;;;;;;;5.43;5.03;;;20.00;99.90;;;;;;5065063;28;20506;-23
2021/07/01 09:56:08;;;;;;;5.13;4.70;;;19.90;99.90;;;;;;5063331;28;20434;-24
2021/07/01 09:58:44;;;;;;;5.30;4.90;;;20.00;99.90;;;;;;5063449;28;20422;-23
2021/07/01 10:01:25;;;;;;;4.70;4.40;;;20.00;99.90;;;;;;5063287;28;20415;-22
2021/07/01 10:03:59;;;;;;;6.00;5.50;;;20.00;99.90;;;;;;5062336;28;20501;-22
2021/07/01 10:06:31;;;;;;;5.53;5.13;;;19.90;99.90;;;;;;5049044;28;20418;-22
2021/07/01 10:09:02;;;;;;;5.50;5.10;;;20.00;99.90;;;;;;5063793;28;20969;-22
2021/07/01 10:11:38;;;;;;;5.03;4.63;;;20.00;99.90;;;;;;5064295;28;20427;-23
2021/07/01 10:14:13;;;;;;;5.10;4.77;;;20.00;99.90;;;;;;5063355;28;20492;-24
2021/07/01 10:16:44;;;;;;;4.87;4.57;;;20.00;99.90;;;;;;5064401;28;20479;-25
2021/07/01 10:19:23;;;;;;;4.77;4.40;;;20.00;99.90;;;;;;5064349;28;20431;-26
2021/07/01 10:22:05;;;;;;;4.47;4.07;;;19.90;99.90;;;;;;5054817;28;20424;-26
2021/07/01 10:24:48;;;;;;;5.57;5.07;;;19.90;99.90;;;;;;5053013;28;20473;-22
2021/07/01 10:27:30;;;;;;;5.10;4.70;;;19.90;99.90;;;;;;5063478;28;20518;-24
2021/07/01 10:30:13;;;;;;;5.07;4.67;;;19.90;99.90;;;;;;5063623;28;20445;-22
2021/07/01 10:32:45;;;;;;;5.67;5.10;;;20.00;99.90;;;;;;5064042;28;20489;-24
2021/07/01 10:35:26;;;;;;;4.50;4.20;;;19.90;99.90;;;;;;5063232;28;20613;-29
2021/07/01 10:37:59;;;;;;;4.90;4.60;;;19.90;99.90;;;;;;5064193;28;20491;-25
2021/07/01 10:40:32;;;;;;;4.57;4.17;;;19.90;99.90;;;;;;5062270;28;20473;-28
2021/07/01 10:43:03;;;;;;;4.40;4.10;;;19.90;99.90;;;;;;5064314;28;20434;-22
2021/07/01 10:45:34;;;;;;;4.80;4.40;;;19.90;99.90;;;;;;5063733;28;20484;-24
2021/07/01 10:48:17;;;;;;;4.60;4.20;;;19.80;99.90;;;;;;5063917;28;20496;-22
2021/07/01 10:50:52;;;;;;;4.23;3.93;;;19.80;99.90;;;;;;5056757;28;20458;-22
2021/07/01 10:53:34;;;;;;;4.23;3.93;;;19.80;99.90;;;;;;5063890;28;20452;-24
2021/07/01 10:56:08;;;;;;;4.10;3.80;;;19.70;99.90;;;;;;5062681;28;20440;-24
2021/07/01 10:58:39;;;;;;;4.77;4.37;;;19.70;99.90;;;;;;5063617;28;20463;-24
2021/07/01 11:01:27;;;;;;;4.63;4.23;;;19.70;99.90;;;;;;5054924;28;20440;-24
2021/07/01 11:04:12;;;;;;;5.20;4.33;;;19.70;99.90;;;;;;5063719;28;20586;-22
2021/07/01 11:06:46;;;;;;;4.33;4.03;;;19.70;99.90;;;;;;5062547;28;20423;-23
2021/07/01 11:09:17;;;;;;;4.07;3.77;;;19.60;99.90;;;;;;5062176;28;21323;-25
2021/07/01 11:11:48;;;;;;;4.30;4.00;;;19.60;99.90;;;;;;5063591;28;20428;-22
2021/07/01 11:14:41;;;;;;;5.17;4.70;;;19.60;99.90;;;;;;5062498;28;20508;-22
2021/07/01 11:17:12;;;;;;;3.70;3.50;;;19.60;99.90;;;;;;5048150;28;20481;-24
2021/07/01 11:19:45;;;;;;;4.30;4.00;;;19.50;99.90;;;;;;5060770;28;20423;-23
2021/07/01 11:22:18;;;;;;;5.07;4.27;;;19.50;99.90;;;;;;5063182;28;20449;-24
2021/07/01 11:24:50;;;;;;;5.57;4.30;;;19.50;99.90;;;;;;5061676;28;20453;-25
2021/07/01 11:27:25;;;;;;;3.90;3.70;;;19.50;99.90;;;;;;5062821;28;20454;-21
2021/07/01 11:29:56;;;;;;;3.70;3.40;;;19.50;99.90;;;;;;5062322;28;20878;-23
2021/07/01 11:32:30;;;;;;;3.87;3.57;;;19.50;99.90;;;;;;5062539;28;20430;-25
2021/07/01 11:35:01;;;;;;;3.93;3.53;;;19.50;99.90;;;;;;5061979;28;20442;-22
2021/07/01 11:37:38;;;;;;;3.63;3.33;;;19.50;99.90;;;;;;5049933;28;20473;-23
2021/07/01 11:40:14;;;;;;;3.60;3.40;;;19.50;99.90;;;;;;5061408;28;20459;-24
2021/07/01 11:42:46;;;;;;;4.00;3.70;;;19.50;99.90;;;;;;5064730;28;20566;-23
2021/07/01 11:45:17;;;;;;;3.70;3.40;;;19.40;99.90;;;;;;5055983;28;20480;-24
2021/07/01 11:47:49;;;;;;;4.10;3.50;;;19.50;99.90;;;;;;5062464;28;20571;-21
2021/07/01 11:50:20;;;;;;;3.67;3.37;;;19.50;99.90;;;;;;5062007;28;20486;-25
2021/07/01 11:52:54;;;;;;;4.20;3.90;;;19.30;99.90;;;;;;5046850;28;20464;-25
2021/07/01 11:55:25;;;;;;;4.03;3.73;;;19.40;99.90;;;;;;5061156;28;20488;-25
2021/07/01 11:57:56;;;;;;;3.77;3.47;;;19.40;99.90;;;;;;5061979;28;20503;-22
2021/07/01 12:00:27;;;;;;;3.70;3.50;;;19.30;99.90;;;;;;5061231;28;20606;-24
2021/07/01 12:03:00;;;;;;;4.00;3.70;;;19.30;99.90;;;;;;5061505;28;20484;-23
2021/07/01 12:05:33;;;;;;;4.27;3.87;;;19.20;99.90;;;;;;5052375;28;20438;-23
2021/07/01 12:08:08;;;;;;;4.40;4.10;;;19.10;99.90;;;;;;5054909;28;20472;-24
2021/07/01 12:10:42;;;;;;;3.80;3.50;;;19.10;99.90;;;;;;5055676;28;20430;-28
2021/07/01 12:13:40;;;;;;;4.60;4.30;;;19.00;99.90;;;;;;5062364;28;20444;-23
2021/07/01 12:16:12;;;;;;;3.90;3.70;;;19.00;99.90;;;;;;5062529;28;20452;-22
2021/07/01 12:18:54;;;;;;;4.33;4.03;;;19.10;99.90;;;;;;5065896;28;20479;-26
2021/07/01 12:21:28;;;;;;;4.10;3.80;;;19.00;99.90;;;;;;5066038;28;20460;-24
2021/07/01 12:24:03;;;;;;;4.30;4.00;;;18.90;99.90;;;;;;5066414;28;20474;-23
2021/07/01 12:26:41;;;;;;;4.10;3.80;;;18.90;99.90;;;;;;5055588;28;20440;-25
2021/07/01 12:29:14;;;;;;;4.03;3.63;;;18.80;99.90;;;;;;5065486;28;20475;-22
2021/07/01 12:31:45;;;;;;;4.63;4.30;;;18.80;99.90;;;;;;5065215;28;20452;-25
2021/07/01 12:34:22;;;;;;;3.60;3.40;;;18.70;99.90;;;;;;5065326;28;20430;-23
2021/07/01 12:37:04;;;;;;;4.13;3.83;;;18.70;99.90;;;;;;5065569;28;20448;-23
2021/07/01 12:39:47;;;;;;;4.00;3.70;;;18.70;99.90;;;;;;5064720;28;20452;-24
2021/07/01 12:42:25;;;;;;;3.77;3.47;;;18.60;99.90;;;;;;5065570;28;20454;-24
2021/07/01 12:45:06;;;;;;;3.00;2.80;;;18.50;99.90;;;;;;5065808;28;20418;-22
2021/07/01 12:47:38;;;;;;;4.53;3.30;;;18.50;99.90;;;;;;5065304;28;20459;-24
2021/07/01 12:50:13;;;;;;;3.33;3.13;;;18.60;99.90;;;;;;5065030;28;20455;-27
2021/07/01 12:52:46;;;;;;;3.63;3.33;;;18.60;99.90;;;;;;5064449;28;20515;-22
2021/07/01 12:55:25;;;;;;;3.33;3.13;;;18.50;99.90;;;;;;5064564;28;20498;-23
2021/07/01 12:57:57;;;;;;;3.83;3.57;;;18.50;99.90;;;;;;5065668;28;20513;-24
2021/07/01 13:00:29;;;;;;;3.67;3.37;;;18.40;99.90;;;;;;5065279;28;20800;-23
2021/07/01 13:03:12;;;;;;;3.17;2.87;;;18.30;99.90;;;;;;5049317;28;20498;-22
2021/07/01 13:05:45;;;;;;;4.03;3.10;;;18.20;99.90;;;;;;5064649;28;20430;-22
2021/07/01 13:08:16;;;;;;;3.33;3.13;;;18.10;99.90;;;;;;5059473;28;20471;-24
2021/07/01 13:10:49;;;;;;;2.70;2.50;;;18.20;99.90;;;;;;5063408;28;20455;-24
2021/07/01 13:13:27;;;;;;;3.50;2.90;;;18.20;99.90;;;;;;5052977;28;20452;-22
2021/07/01 13:16:07;;;;;;;2.97;2.77;;;18.30;99.90;;;;;;5065297;28;20460;-23